.
WxDataArchive / Data Records for 2009-07-07
2009-07-06 July 2009 2009-07-08

Data Records for Tuesday, 07 July 2009

Time	Temp	Chill	HIndex	Humid	Dewpt	 Wind 	HiWind	WindDir	Rain 	Barom 
-----	----	-----	------	-----	-----	------	------	-------	-----	----- 
00:00	64.8	64.8	64.8	70	54.8	0	0	---	0.00	29.826 
00:05	64.8	64.8	64.8	70	54.8	0	0	---	0.00	29.826 
00:10	65.0	65.0	65.0	70	55.0	0	0	---	0.00	29.826 
00:15	65.0	65.0	65.0	70	55.0	0	0	---	0.00	29.823 
00:20	65.0	65.0	65.0	70	55.0	0	0	---	0.00	29.823 
00:25	65.0	65.0	65.0	70	55.0	0	0	---	0.00	29.823 
00:30	64.8	64.8	64.8	70	54.8	0	0	---	0.00	29.817 
00:35	64.8	64.8	64.8	71	55.2	0	0	---	0.00	29.817 
00:40	64.7	64.7	64.7	71	55.1	0	0	---	0.00	29.817 
00:45	64.5	64.5	64.5	72	55.3	0	0	---	0.00	29.817 
00:50	64.5	64.5	64.5	73	55.6	0	0	---	0.00	29.817 
00:55	64.5	64.5	64.5	73	55.6	0	0	---	0.00	29.817 
01:00	64.5	64.5	64.5	73	55.6	0	0	---	0.00	29.819 
01:05	64.3	64.3	64.3	73	55.5	0	0	---	0.00	29.819 
01:10	64.3	64.3	64.3	73	55.5	0	0	---	0.00	29.819 
01:15	64.2	64.2	64.2	73	55.4	0	0	---	0.00	29.819 
01:20	64.0	64.0	64.0	73	55.2	0	0	---	0.00	29.819 
01:25	63.9	63.9	63.9	74	55.4	0	0	---	0.00	29.819 
01:30	63.7	63.7	63.7	75	55.6	0	0	---	0.00	29.815 
01:35	63.4	63.4	63.4	76	55.7	0	0	---	0.00	29.815 
01:40	63.2	63.2	63.2	76	55.5	0	0	---	0.00	29.815 
01:45	63.1	63.1	63.1	77	55.8	0	0	---	0.00	29.813 
01:50	62.7	62.7	62.7	77	55.4	0	0	---	0.00	29.813 
01:55	62.6	62.6	62.6	78	55.6	0	0	---	0.00	29.813 
02:00	62.3	62.3	62.3	79	55.7	0	0	---	0.00	29.813 
02:05	62.1	62.1	62.1	79	55.5	0	0	---	0.00	29.813 
02:10	62.0	62.0	62.0	80	55.8	0	0	---	0.00	29.813 
02:15	61.6	61.6	61.6	81	55.7	0	0	---	0.00	29.813 
02:20	61.5	61.5	61.5	81	55.6	0	0	---	0.00	29.813 
02:25	61.3	61.3	61.3	82	55.8	0	0	---	0.00	29.813 
02:30	61.2	61.2	61.2	82	55.7	0	0	---	0.00	29.814 
02:35	61.0	61.0	61.0	83	55.8	0	0	---	0.00	29.814 
02:40	60.9	60.9	60.9	83	55.7	0	0	---	0.00	29.814 
02:45	60.7	60.7	60.7	83	55.5	0	0	---	0.00	29.811 
02:50	60.5	60.5	60.5	84	55.6	0	0	---	0.00	29.811 
02:55	60.4	60.4	60.4	84	55.5	0	0	---	0.00	29.811 
03:00	60.4	60.4	60.4	84	55.5	0	0	---	0.00	29.811 
03:05	60.4	60.4	60.4	84	55.5	0	0	---	0.00	29.811 
03:10	60.5	60.5	60.5	85	56.0	0	0	---	0.00	29.811 
03:15	60.7	60.7	60.7	85	56.2	0	0	---	0.00	29.810 
03:20	60.9	60.9	60.9	84	56.0	0	0	---	0.00	29.810 
03:25	61.0	61.0	61.0	84	56.1	0	0	---	0.00	29.810 
03:30	61.0	61.0	61.0	84	56.1	0	0	---	0.00	29.811 
03:35	61.2	61.2	61.2	84	56.3	0	0	---	0.00	29.811 
03:40	61.2	61.2	61.2	84	56.3	0	0	---	0.00	29.811 
03:45	61.3	61.3	61.3	84	56.4	0	0	---	0.00	29.807 
03:50	61.3	61.3	61.3	84	56.4	0	0	---	0.00	29.807 
03:55	61.5	61.5	61.5	84	56.6	0	0	---	0.00	29.807 
04:00	61.6	61.6	61.6	84	56.7	0	0	---	0.00	29.807 
04:05	62.0	62.0	62.0	84	57.1	0	0	---	0.00	29.807 
04:10	62.3	62.3	62.3	83	57.1	0	0	---	0.00	29.807 
04:15	62.4	62.4	62.4	82	56.8	0	0	---	0.00	29.810 
04:20	62.6	62.6	62.6	82	57.0	0	0	---	0.00	29.810 
04:25	62.7	62.7	62.7	82	57.1	0	0	---	0.00	29.810 
04:30	62.9	62.9	62.9	82	57.3	0	0	---	0.00	29.811 
04:35	63.1	63.1	63.1	81	57.2	0	0	---	0.00	29.811 
04:40	63.1	63.1	63.1	81	57.2	0	0	---	0.00	29.811 
04:45	62.9	62.9	62.9	80	56.6	0	0	---	0.00	29.813 
04:50	62.9	62.9	62.9	80	56.6	0	0	---	0.00	29.813 
04:55	62.7	62.7	62.7	80	56.4	0	0	---	0.00	29.813 
05:00	62.7	62.7	62.7	80	56.4	0	0	---	0.00	29.815 
05:05	62.7	62.7	62.7	81	56.8	0	0	---	0.00	29.815 
05:10	62.7	62.7	62.7	81	56.8	0	0	---	0.00	29.815 
05:15	62.7	62.7	62.7	80	56.4	0	0	---	0.00	29.824 
05:20	62.7	62.7	62.7	79	56.1	0	0	---	0.00	29.824 
05:25	62.7	62.7	62.7	79	56.1	0	0	---	0.00	29.824 
05:30	62.7	62.7	62.7	79	56.1	0	0	---	0.00	29.828 
05:35	62.9	62.9	62.9	79	56.3	0	0	---	0.00	29.828 
05:40	63.1	63.1	63.1	79	56.5	0	0	---	0.00	29.828 
05:45	63.1	63.1	63.1	79	56.5	0	0	---	0.00	29.831 
05:50	63.1	63.1	63.1	79	56.5	0	0	---	0.00	29.831 
05:55	62.9	62.9	62.9	79	56.3	0	0	---	0.00	29.831 
06:00	62.7	62.7	62.7	79	56.1	0	0	---	0.00	29.842 
06:05	62.4	62.4	62.4	80	56.1	0	0	---	0.00	29.842 
06:10	62.4	62.4	62.4	80	56.1	0	0	---	0.00	29.842 
06:15	62.4	62.4	62.4	79	55.8	0	0	---	0.00	29.845 
06:20	62.4	62.4	62.4	79	55.8	0	0	---	0.00	29.845 
06:25	62.4	62.4	62.4	78	55.4	0	1	292	0.00	29.845 
06:30	62.4	62.4	62.4	76	54.7	0	1	292	0.00	29.849 
06:35	62.4	62.4	62.4	76	54.7	0	1	292	0.00	29.849 
06:40	62.4	62.4	62.4	75	54.4	0	1	292	0.00	29.849 
06:45	62.4	62.4	62.4	75	54.4	0	0	---	0.00	29.849 
06:50	62.3	62.3	62.3	75	54.3	0	1	292	0.00	29.849 
06:55	62.3	62.3	62.3	75	54.3	0	0	---	0.00	29.849 
07:00	62.1	62.1	62.1	75	54.1	0	0	---	0.00	29.850 
07:05	62.1	62.1	62.1	74	53.7	0	1	292	0.00	29.850 
07:10	62.3	62.3	62.3	72	53.2	0	1	292	0.00	29.850 
07:15	62.4	62.4	62.4	72	53.2	0	0	---	0.00	29.858 
07:20	62.4	62.4	62.4	71	52.9	0	1	292	0.00	29.858 
07:25	62.6	62.6	62.6	70	52.7	0	1	292	0.00	29.858 
07:30	62.9	62.9	62.9	70	53.0	0	1	292	0.00	29.861 
07:35	63.2	63.2	63.2	69	52.9	0	1	292	0.00	29.861 
07:40	63.5	63.5	63.5	68	52.7	0	1	292	0.00	29.861 
07:45	63.9	63.9	63.9	67	52.7	0	1	292	0.00	29.867 
07:50	64.2	64.2	64.2	67	53.0	0	1	292	0.00	29.867 
07:55	64.7	64.7	64.7	66	53.1	0	1	292	0.00	29.867 
08:00	65.0	65.0	65.0	66	53.4	0	1	292	0.00	29.872 
08:05	65.6	65.6	65.6	64	53.1	0	1	292	0.00	29.872 
08:10	66.1	66.1	66.1	62	52.7	0	1	292	0.00	29.872 
08:15	66.4	66.4	66.4	62	53.0	0	1	292	0.00	29.872 
08:20	67.1	67.1	67.1	59	52.3	0	2	292	0.00	29.872 
08:25	67.9	67.9	67.9	60	53.5	0	1	292	0.00	29.872 
08:30	68.6	68.6	68.6	58	53.2	0	2	292	0.00	29.873 
08:35	69.6	69.6	69.6	57	53.7	0	1	292	0.00	29.873 
08:40	70.3	70.3	70.3	54	52.9	0	3	292	0.00	29.873 
08:45	70.3	70.3	70.3	53	52.3	0	1	292	0.00	29.873 
08:50	70.1	70.1	70.1	55	53.2	0	1	292	0.00	29.873 
08:55	69.6	69.6	69.6	53	51.7	0	1	292	0.00	29.873 
09:00	69.3	69.3	69.3	54	51.9	0	2	292	0.00	29.874 
09:05	69.6	69.6	69.6	55	52.7	0	2	292	0.00	29.874 
09:10	69.8	69.8	69.8	52	51.4	0	1	315	0.00	29.874 
09:15	70.1	70.1	70.1	52	51.6	0	1	315	0.00	29.879 
09:20	70.4	70.4	70.4	51	51.4	0	2	315	0.00	29.879 
09:25	70.8	70.8	70.8	49	50.7	0	2	315	0.00	29.879 
09:30	71.3	71.3	71.3	49	51.1	0	1	315	0.00	29.877 
09:35	72.1	72.1	72.1	48	51.3	0	1	315	0.00	29.877 
09:40	72.8	72.8	72.8	47	51.4	0	2	0	0.00	29.877 
09:45	72.7	72.7	72.7	44	49.5	0	2	292	0.00	29.875 
09:50	72.5	72.5	72.5	43	48.7	0	2	292	0.00	29.875 
09:55	72.7	72.7	72.7	41	47.6	0	2	292	0.00	29.875 
10:00	73.2	73.2	73.2	41	48.1	0	3	292	0.00	29.876 
10:05	73.7	73.7	73.7	41	48.5	0	1	45	0.00	29.876 
10:10	74.0	74.0	74.0	38	46.8	1	2	45	0.00	29.876 
10:15	74.2	74.2	74.2	40	48.3	0	2	22	0.00	29.877 
10:20	74.7	74.7	74.7	39	48.1	1	3	45	0.00	29.877 
10:25	75.1	75.1	77.3	36	46.3	0	2	0	0.00	29.877 
10:30	75.4	75.4	77.5	37	47.3	0	2	0	0.00	29.877 
10:35	75.4	75.4	77.3	33	44.3	1	2	338	0.00	29.877 
10:40	75.6	75.6	77.5	36	46.7	0	2	338	0.00	29.877 
10:45	76.1	76.1	77.8	38	48.6	1	3	135	0.00	29.871 
10:50	76.7	76.7	77.9	36	47.7	1	5	90	0.00	29.871 
10:55	77.2	77.2	77.9	33	45.8	0	3	112	0.00	29.871 
11:00	77.2	77.2	77.7	29	42.5	1	3	112	0.00	29.871 
11:05	76.8	76.8	77.5	28	41.2	1	2	135	0.00	29.871 
11:10	76.8	76.8	77.5	29	42.1	1	2	338	0.00	29.871 
11:15	76.7	76.7	77.7	33	45.4	1	3	292	0.00	29.873 
11:20	76.7	76.7	77.7	33	45.4	1	3	292	0.00	29.873 
11:25	77.4	77.4	77.8	30	43.5	1	3	112	0.00	29.873 
11:30	77.4	77.4	77.8	30	43.5	1	3	225	0.00	29.876 
11:35	77.2	77.2	77.7	29	42.5	1	4	270	0.00	29.876 
11:40	77.2	77.2	77.8	30	43.3	0	2	0	0.00	29.876 
11:45	76.8	76.8	77.6	30	43.0	1	3	0	0.00	29.876 
11:50	76.7	76.7	77.7	33	45.4	1	3	292	0.00	29.876 
11:55	76.8	76.8	77.8	34	46.3	1	4	315	0.00	29.876 
12:00	77.0	77.0	77.7	31	44.0	1	4	90	0.00	29.873 
12:05	76.7	76.7	77.6	31	43.8	1	5	292	0.00	29.873 
12:10	76.7	76.7	77.6	31	43.8	1	4	315	0.00	29.873 
12:15	77.0	77.0	77.7	31	44.0	1	4	315	0.00	29.877 
12:20	77.4	77.4	77.9	31	44.4	0	2	292	0.00	29.877 
12:25	77.7	77.7	78.0	31	44.6	1	2	292	0.00	29.877 
12:30	78.1	78.1	78.2	31	45.0	0	2	315	0.00	29.872 
12:35	78.3	78.3	78.4	32	46.0	0	2	315	0.00	29.872 
12:40	78.3	78.3	78.3	30	44.3	2	4	315	0.00	29.872 
12:45	78.3	78.3	78.3	31	45.2	1	4	270	0.00	29.873 
12:50	77.9	77.9	78.3	33	46.5	1	3	292	0.00	29.873 
12:55	77.6	77.6	78.1	32	45.4	1	3	315	0.00	29.873 
13:00	77.7	77.7	78.1	32	45.5	1	3	315	0.00	29.876 
13:05	77.7	77.7	78.2	33	46.3	1	3	292	0.00	29.876 
13:10	77.6	77.6	78.2	34	47.0	1	4	315	0.00	29.876 
13:15	77.7	77.7	78.3	35	47.8	1	4	292	0.00	29.876 
13:20	78.3	78.3	78.5	34	47.6	1	5	270	0.00	29.876 
13:25	78.1	78.1	78.4	34	47.4	1	4	315	0.00	29.876 
13:30	78.1	78.1	78.2	31	45.0	1	4	338	0.00	29.876 
13:35	77.9	77.9	78.3	33	46.5	2	6	292	0.00	29.876 
13:40	78.1	78.1	78.2	31	45.0	2	5	315	0.00	29.876 
13:45	78.5	78.5	78.4	31	45.3	2	4	315	0.00	29.873 
13:50	78.3	78.3	78.3	31	45.2	2	4	270	0.00	29.873 
13:55	78.3	78.3	78.5	33	46.8	0	2	315	0.00	29.873 
14:00	78.8	78.8	78.5	30	44.7	2	6	292	0.00	29.875 
14:05	78.6	78.6	78.5	31	45.4	2	5	338	0.00	29.875 
14:10	78.8	78.8	78.6	31	45.6	2	5	270	0.00	29.875 
14:15	78.8	78.8	78.5	29	43.8	2	4	292	0.00	29.874 
14:20	78.6	78.6	78.4	29	43.7	3	6	315	0.00	29.874 
14:25	78.3	78.3	78.3	30	44.3	2	5	315	0.00	29.874 
14:30	78.5	78.5	78.3	29	43.6	3	6	292	0.00	29.876 
14:35	78.8	78.8	78.6	31	45.6	1	4	292	0.00	29.876 
14:40	79.6	79.6	78.8	27	42.7	2	5	292	0.00	29.876 
14:45	79.2	79.2	78.7	29	44.2	2	7	315	0.00	29.876 
14:50	79.2	79.2	78.8	31	45.9	1	6	315	0.00	29.876 
14:55	79.2	79.2	78.8	31	45.9	2	4	292	0.00	29.876 
15:00	78.8	78.8	78.5	29	43.8	1	3	315	0.00	29.872 
15:05	79.0	79.0	78.6	30	44.9	1	3	338	0.00	29.872 
15:10	79.6	79.6	79.0	31	46.3	1	4	0	0.00	29.872 
15:15	79.6	79.6	79.0	30	45.4	2	6	292	0.00	29.871 
15:20	79.8	79.8	79.0	29	44.7	2	6	270	0.00	29.871 
15:25	79.4	79.4	78.8	30	45.2	3	6	315	0.00	29.871 
15:30	79.8	79.8	79.0	29	44.7	2	5	270	0.00	29.870 
15:35	79.0	79.0	78.7	31	45.8	1	3	292	0.00	29.870 
15:40	79.0	79.0	78.8	33	47.4	1	3	315	0.00	29.870 
15:45	78.6	78.6	78.5	31	45.4	1	4	292	0.00	29.874 
15:50	78.5	78.5	78.5	32	46.2	1	4	292	0.00	29.874 
15:55	78.8	78.8	78.5	30	44.7	1	3	292	0.00	29.874 
16:00	79.4	79.4	78.9	31	46.1	1	4	270	0.00	29.868 
16:05	79.6	79.6	78.9	29	44.5	2	5	315	0.00	29.868 
16:10	79.4	79.4	78.7	28	43.4	3	7	270	0.00	29.868 
16:15	79.0	79.0	78.6	29	44.0	2	5	315	0.00	29.871 
16:20	79.4	79.4	78.9	31	46.1	1	5	315	0.00	29.871 
16:25	79.8	79.8	79.0	29	44.7	2	3	315	0.00	29.871 
16:30	79.6	79.6	78.8	28	43.6	2	4	315	0.00	29.869 
16:35	79.4	79.4	78.7	28	43.4	1	3	270	0.00	29.869 
16:40	79.2	79.2	78.8	31	45.9	2	7	270	0.00	29.869 
16:45	79.6	79.6	79.0	30	45.4	1	3	315	0.00	29.865 
16:50	79.2	79.2	78.7	30	45.1	2	6	315	0.00	29.865 
16:55	78.5	78.5	78.4	31	45.3	2	6	315	0.00	29.865 
17:00	78.8	78.8	78.6	31	45.6	1	4	22	0.00	29.872 
17:05	79.4	79.4	79.1	34	48.6	1	4	0	0.00	29.872 
17:10	79.4	79.4	78.8	30	45.2	2	5	292	0.00	29.872 
17:15	79.2	79.2	78.9	32	46.8	1	4	292	0.00	29.872 
17:20	78.6	78.6	78.5	31	45.4	1	3	292	0.00	29.872 
17:25	78.8	78.8	78.6	31	45.6	1	4	292	0.00	29.872 
17:30	79.4	79.4	78.8	30	45.2	1	3	315	0.00	29.869 
17:35	79.8	79.8	79.1	31	46.5	2	7	292	0.00	29.869 
17:40	79.9	79.9	79.2	31	46.5	1	4	0	0.00	29.869 
17:45	79.9	79.9	79.1	29	44.8	1	4	292	0.00	29.869 
17:50	79.8	79.8	79.0	29	44.7	1	3	292	0.00	29.869 
17:55	79.0	79.0	78.7	31	45.8	1	5	292	0.00	29.869 
18:00	79.0	79.0	78.7	31	45.8	1	3	315	0.00	29.869 
18:05	79.0	79.0	78.9	34	48.2	1	4	270	0.00	29.869 
18:10	78.6	78.6	78.7	34	47.9	1	2	0	0.00	29.869 
18:15	78.3	78.3	78.5	34	47.6	1	3	0	0.00	29.873 
18:20	78.3	78.3	78.5	34	47.6	1	4	270	0.00	29.873 
18:25	78.1	78.1	78.3	32	45.8	2	4	292	0.00	29.873 
18:30	77.9	77.9	78.2	32	45.6	1	7	292	0.00	29.872 
18:35	77.6	77.6	78.2	34	47.0	0	2	292	0.00	29.872 
18:40	77.4	77.4	78.1	34	46.8	1	3	315	0.00	29.872 
18:45	77.4	77.4	78.1	35	47.6	1	4	292	0.00	29.872 
18:50	77.2	77.2	78.0	34	46.6	1	3	292	0.00	29.872 
18:55	77.2	77.2	78.1	35	47.4	1	6	22	0.00	29.872 
19:00	77.2	77.2	77.9	32	45.0	1	4	292	0.00	29.869 
19:05	76.8	76.8	77.8	33	45.5	0	1	315	0.00	29.869 
19:10	76.5	76.5	77.7	34	46.0	0	2	315	0.00	29.869 
19:15	76.3	76.3	77.7	35	46.6	1	3	292	0.00	29.867 
19:20	76.0	76.0	77.5	33	44.8	1	4	292	0.00	29.867 
19:25	75.6	75.6	77.4	34	45.2	0	2	292	0.00	29.867 
19:30	76.0	76.0	77.5	34	45.6	1	2	292	0.00	29.873 
19:35	76.0	76.0	77.6	35	46.4	0	2	292	0.00	29.873 
19:40	75.8	75.8	77.5	35	46.2	0	2	315	0.00	29.873 
19:45	75.4	75.4	77.4	36	46.6	0	1	315	0.00	29.875 
19:50	75.1	75.1	77.3	36	46.3	0	2	315	0.00	29.875 
19:55	74.6	74.6	74.6	37	46.6	0	3	315	0.00	29.875 
20:00	74.4	74.4	74.4	38	47.1	0	2	292	0.00	29.879 
20:05	74.0	74.0	74.0	38	46.8	0	3	68	0.00	29.879 
20:10	73.9	73.9	73.9	38	46.7	0	3	68	0.00	29.879 
20:15	73.7	73.7	73.7	39	47.2	0	1	68	0.00	29.877 
20:20	73.5	73.5	73.5	39	47.0	0	1	68	0.00	29.877 
20:25	73.2	73.2	73.2	39	46.7	0	1	68	0.00	29.877 
20:30	73.0	73.0	73.0	40	47.2	0	2	68	0.00	29.878 
20:35	72.7	72.7	72.7	39	46.3	0	1	68	0.00	29.878 
20:40	72.5	72.5	72.5	40	46.8	0	1	68	0.00	29.878 
20:45	72.3	72.3	72.3	40	46.6	0	1	68	0.00	29.889 
20:50	72.0	72.0	72.0	40	46.3	0	1	68	0.00	29.889 
20:55	71.8	71.8	71.8	41	46.8	0	1	68	0.00	29.889 
21:00	71.6	71.6	71.6	41	46.6	0	1	68	0.00	29.885 
21:05	71.3	71.3	71.3	42	47.0	0	1	68	0.00	29.885 
21:10	71.1	71.1	71.1	43	47.5	0	1	68	0.00	29.885 
21:15	70.9	70.9	70.9	43	47.3	0	1	68	0.00	29.890 
21:20	70.8	70.8	70.8	43	47.2	0	0	---	0.00	29.890 
21:25	70.6	70.6	70.6	43	47.0	0	0	---	0.00	29.890 
21:30	70.3	70.3	70.3	44	47.3	0	0	---	0.00	29.893 
21:35	70.1	70.1	70.1	45	47.8	0	0	---	0.00	29.893 
21:40	69.9	69.9	69.9	45	47.6	0	1	68	0.00	29.893 
21:45	69.8	69.8	69.8	46	48.1	0	0	---	0.00	29.893 
21:50	69.6	69.6	69.6	47	48.5	0	0	---	0.00	29.893 
21:55	69.3	69.3	69.3	47	48.2	0	0	---	0.00	29.893 
22:00	69.1	69.1	69.1	47	48.0	0	1	68	0.00	29.899 
22:05	68.8	68.8	68.8	47	47.7	0	1	68	0.00	29.899 
22:10	68.4	68.4	68.4	48	47.9	0	1	68	0.00	29.899 
22:15	68.1	68.1	68.1	49	48.2	0	0	---	0.00	29.903 
22:20	67.9	67.9	67.9	49	48.0	0	0	---	0.00	29.903 
22:25	67.6	67.6	67.6	50	48.3	0	0	---	0.00	29.903 
22:30	67.3	67.3	67.3	51	48.5	0	0	---	0.00	29.907 
22:35	66.9	66.9	66.9	51	48.2	0	0	---	0.00	29.907 
22:40	66.6	66.6	66.6	52	48.4	0	0	---	0.00	29.907 
22:45	66.4	66.4	66.4	52	48.2	0	0	---	0.00	29.908 
22:50	66.1	66.1	66.1	53	48.5	0	0	---	0.00	29.908 
22:55	65.8	65.8	65.8	54	48.7	0	0	---	0.00	29.908 
23:00	65.5	65.5	65.5	54	48.4	0	0	---	0.00	29.910 
23:05	65.3	65.3	65.3	55	48.7	0	0	---	0.00	29.910 
23:10	65.0	65.0	65.0	56	48.9	0	0	---	0.00	29.910 
23:15	64.7	64.7	64.7	56	48.6	0	0	---	0.00	29.913 
23:20	64.3	64.3	64.3	56	48.3	0	0	---	0.00	29.913 
23:25	64.2	64.2	64.2	57	48.6	0	0	---	0.00	29.913 
23:30	64.0	64.0	64.0	58	48.9	0	0	---	0.00	29.918 
23:35	63.9	63.9	63.9	59	49.3	0	0	---	0.00	29.918 
23:40	63.7	63.7	63.7	59	49.1	0	0	---	0.00	29.918 
23:45	63.4	63.4	63.4	59	48.8	0	0	---	0.00	29.923 
23:50	63.1	63.1	63.1	60	49.0	0	0	---	0.00	29.923 
23:55	62.7	62.7	62.7	61	49.1	0	0	---	0.00	29.923 

CoCoRaHS
IN-AL-39
A2 Web Hosting
Creative Commons License
GoDaddy
search engine by freefind advanced

loaded 2018-11-15 13:41:20 • last modified 2010-11-18 10:43:29
Privacy PolicyDisclaimer
• wx.awcolley.com is powered by PmWiki v.2002016 •
• all content (unless otherwise noted) © 2018 A W Colley